sensor_id;sensor_type;location;lat;lon;timestamp;pressure;altitude;pressure_sealevel;temperature;humidity
20455;BME280;10386;54.314;10.022;2022-11-20T00:00:07;100342.38;;;1.89;100.00
20455;BME280;10386;54.314;10.022;2022-11-20T00:02:34;100340.03;;;1.82;100.00
20455;BME280;10386;54.314;10.022;2022-11-20T00:05:01;100333.81;;;1.81;100.00
20455;BME280;10386;54.314;10.022;2022-11-20T00:07:28;100342.13;;;1.75;100.00
20455;BME280;10386;54.314;10.022;2022-11-20T00:09:56;100343.91;;;1.75;100.00
20455;BME280;10386;54.314;10.022;2022-11-20T00:12:23;100331.41;;;1.75;100.00
20455;BME280;10386;54.314;10.022;2022-11-20T00:14:52;100337.72;;;1.74;100.00
20455;BME280;10386;54.314;10.022;2022-11-20T00:17:19;100330.63;;;1.73;100.00
20455;BME280;10386;54.314;10.022;2022-11-20T00:19:46;100321.66;;;1.74;100.00
20455;BME280;10386;54.314;10.022;2022-11-20T00:22:14;100323.41;;;1.75;100.00
20455;BME280;10386;54.314;10.022;2022-11-20T00:24:41;100313.69;;;1.73;100.00
20455;BME280;10386;54.314;10.022;2022-11-20T00:27:08;100319.13;;;1.71;100.00
20455;BME280;10386;54.314;10.022;2022-11-20T00:29:35;100312.06;;;1.69;100.00
20455;BME280;10386;54.314;10.022;2022-11-20T00:32:03;100311.19;;;1.68;100.00
20455;BME280;10386;54.314;10.022;2022-11-20T00:34:31;100307.66;;;1.68;100.00
20455;BME280;10386;54.314;10.022;2022-11-20T00:36:58;100304.09;;;1.67;100.00
20455;BME280;10386;54.314;10.022;2022-11-20T00:39:26;100303.25;;;1.67;100.00
20455;BME280;10386;54.314;10.022;2022-11-20T00:41:54;100305.03;;;1.66;100.00
20455;BME280;10386;54.314;10.022;2022-11-20T00:44:22;100305.13;;;1.65;100.00
20455;BME280;10386;54.314;10.022;2022-11-20T00:46:50;100302.59;;;1.62;100.00
20455;BME280;10386;54.314;10.022;2022-11-20T00:49:18;100298.09;;;1.62;100.00
20455;BME280;10386;54.314;10.022;2022-11-20T00:51:46;100297.22;;;1.62;100.00
20455;BME280;10386;54.314;10.022;2022-11-20T00:54:15;100293.66;;;1.61;100.00
20455;BME280;10386;54.314;10.022;2022-11-20T00:57:08;100293.53;;;1.64;100.00
20455;BME280;10386;54.314;10.022;2022-11-20T00:59:36;100289.34;;;1.59;100.00
20455;BME280;10386;54.314;10.022;2022-11-20T01:02:04;100285.06;;;1.75;100.00
20455;BME280;10386;54.314;10.022;2022-11-20T01:04:32;100285.19;;;1.72;100.00
20455;BME280;10386;54.314;10.022;2022-11-20T01:07:00;100279.56;;;1.78;100.00
20455;BME280;10386;54.314;10.022;2022-11-20T01:09:28;100279.69;;;1.75;100.00
20455;BME280;10386;54.314;10.022;2022-11-20T01:11:57;100274.31;;;1.76;100.00
20455;BME280;10386;54.314;10.022;2022-11-20T01:14:25;100273.09;;;1.83;100.00
20455;BME280;10386;54.314;10.022;2022-11-20T01:16:53;100266.94;;;1.81;100.00
20455;BME280;10386;54.314;10.022;2022-11-20T01:19:24;100262.97;;;1.90;100.00
20455;BME280;10386;54.314;10.022;2022-11-20T01:21:54;100275.34;;;1.92;100.00
20455;BME280;10386;54.314;10.022;2022-11-20T01:24:22;100264.69;;;1.91;100.00
20455;BME280;10386;54.314;10.022;2022-11-20T01:26:51;100266.25;;;1.96;100.00
20455;BME280;10386;54.314;10.022;2022-11-20T01:29:21;100260.09;;;1.94;100.00
20455;BME280;10386;54.314;10.022;2022-11-20T01:31:52;100252.19;;;1.91;100.00
20455;BME280;10386;54.314;10.022;2022-11-20T01:34:21;100252.63;;;2.01;100.00
20455;BME280;10386;54.314;10.022;2022-11-20T01:36:50;100246.72;;;1.94;100.00
20455;BME280;10386;54.314;10.022;2022-11-20T01:39:21;100249.09;;;2.00;100.00
20455;BME280;10386;54.314;10.022;2022-11-20T01:41:50;100242.72;;;1.84;100.00
20455;BME280;10386;54.314;10.022;2022-11-20T01:44:49;100235.53;;;1.85;100.00
20455;BME280;10386;54.314;10.022;2022-11-20T01:47:30;100232.06;;;1.83;100.00
20455;BME280;10386;54.314;10.022;2022-11-20T01:50:12;100220.56;;;1.81;100.00
20455;BME280;10386;54.314;10.022;2022-11-20T01:52:49;100221.16;;;1.87;100.00
20455;BME280;10386;54.314;10.022;2022-11-20T01:55:23;100213.19;;;1.86;100.00
20455;BME280;10386;54.314;10.022;2022-11-20T01:57:52;100222.09;;;1.86;100.00
20455;BME280;10386;54.314;10.022;2022-11-20T02:00:21;100215.81;;;1.87;100.00
20455;BME280;10386;54.314;10.022;2022-11-20T02:02:56;100211.47;;;1.85;100.00
20455;BME280;10386;54.314;10.022;2022-11-20T02:05:50;100208.88;;;1.83;100.00
20455;BME280;10386;54.314;10.022;2022-11-20T02:08:19;100211.41;;;1.86;100.00
20455;BME280;10386;54.314;10.022;2022-11-20T02:10:53;100200.84;;;1.83;100.00
20455;BME280;10386;54.314;10.022;2022-11-20T02:13:21;100203.16;;;1.91;100.00
20455;BME280;10386;54.314;10.022;2022-11-20T02:18:40;100187.31;;;1.86;100.00
20455;BME280;10386;54.314;10.022;2022-11-20T02:26:24;100199.63;;;1.90;100.00
20455;BME280;10386;54.314;10.022;2022-11-20T02:28:54;100199.75;;;1.87;100.00
20455;BME280;10386;54.314;10.022;2022-11-20T02:31:22;100203.38;;;1.86;100.00
20455;BME280;10386;54.314;10.022;2022-11-20T02:33:55;100199.09;;;1.82;100.00
20455;BME280;10386;54.314;10.022;2022-11-20T02:36:26;100194.69;;;1.81;100.00
20455;BME280;10386;54.314;10.022;2022-11-20T02:38:55;100190.00;;;1.86;100.00
20455;BME280;10386;54.314;10.022;2022-11-20T02:41:36;100195.78;;;1.77;100.00
20455;BME280;10386;54.314;10.022;2022-11-20T02:44:04;100184.34;;;1.74;100.00
20455;BME280;10386;54.314;10.022;2022-11-20T02:46:32;100190.56;;;1.74;100.00
20455;BME280;10386;54.314;10.022;2022-11-20T02:49:01;100192.31;;;1.75;100.00
20455;BME280;10386;54.314;10.022;2022-11-20T02:51:29;100179.91;;;1.73;100.00
20455;BME280;10386;54.314;10.022;2022-11-20T02:54:21;100181.50;;;1.77;100.00
20455;BME280;10386;54.314;10.022;2022-11-20T02:56:50;100175.31;;;1.76;100.00
20455;BME280;10386;54.314;10.022;2022-11-20T02:59:17;100178.78;;;1.78;100.00
20455;BME280;10386;54.314;10.022;2022-11-20T03:01:46;100167.63;;;1.69;100.00
20455;BME280;10386;54.314;10.022;2022-11-20T03:04:13;100172.22;;;1.65;100.00
20455;BME280;10386;54.314;10.022;2022-11-20T03:06:41;100164.53;;;1.78;100.00
20455;BME280;10386;54.314;10.022;2022-11-20T03:09:08;100169.56;;;1.65;100.00
20455;BME280;10386;54.314;10.022;2022-11-20T03:12:01;100173.13;;;1.66;100.00
20455;BME280;10386;54.314;10.022;2022-11-20T03:14:29;100174.56;;;1.73;100.00
20455;BME280;10386;54.314;10.022;2022-11-20T03:16:56;100169.69;;;1.82;100.00
20455;BME280;10386;54.314;10.022;2022-11-20T03:19:23;100176.41;;;1.72;100.00
20455;BME280;10386;54.314;10.022;2022-11-20T03:21:51;100178.13;;;1.73;100.00
20455;BME280;10386;54.314;10.022;2022-11-20T03:24:18;100173.78;;;1.71;100.00
20455;BME280;10386;54.314;10.022;2022-11-20T03:27:10;100177.19;;;1.74;100.00
20455;BME280;10386;54.314;10.022;2022-11-20T03:29:37;100171.97;;;1.71;100.00
20455;BME280;10386;54.314;10.022;2022-11-20T03:32:04;100178.53;;;1.64;100.00
20455;BME280;10386;54.314;10.022;2022-11-20T03:34:32;100167.03;;;1.62;100.00
20455;BME280;10386;54.314;10.022;2022-11-20T03:36:59;100168.41;;;1.71;100.00
20455;BME280;10386;54.314;10.022;2022-11-20T03:39:26;100161.69;;;1.62;100.00
20455;BME280;10386;54.314;10.022;2022-11-20T03:41:53;100160.53;;;1.68;100.00
20455;BME280;10386;54.314;10.022;2022-11-20T03:44:21;100155.94;;;1.71;100.00
20455;BME280;10386;54.314;10.022;2022-11-20T03:46:48;100156.03;;;1.68;100.00
20455;BME280;10386;54.314;10.022;2022-11-20T03:49:16;100162.34;;;1.67;100.00
20455;BME280;10386;54.314;10.022;2022-11-20T03:51:45;100161.47;;;1.67;100.00
20455;BME280;10386;54.314;10.022;2022-11-20T03:54:14;100155.56;;;1.79;100.00
20455;BME280;10386;54.314;10.022;2022-11-20T03:56:41;100158.66;;;1.70;100.00
20455;BME280;10386;54.314;10.022;2022-11-20T03:59:10;100158.72;;;1.68;100.00
20455;BME280;10386;54.314;10.022;2022-11-20T04:01:37;100154.19;;;1.70;100.00
20455;BME280;10386;54.314;10.022;2022-11-20T04:04:05;100147.06;;;1.69;100.00
20455;BME280;10386;54.314;10.022;2022-11-20T04:06:36;100150.03;;;1.63;100.00
20455;BME280;10386;54.314;10.022;2022-11-20T04:09:05;100156.41;;;1.61;100.00
20455;BME280;10386;54.314;10.022;2022-11-20T04:11:34;100156.28;;;1.64;100.00
20455;BME280;10386;54.314;10.022;2022-11-20T04:14:04;100150.84;;;1.65;100.00
20455;BME280;10386;54.314;10.022;2022-11-20T04:16:34;100164.19;;;1.47;100.00
20455;BME280;10386;54.314;10.022;2022-11-20T04:19:04;100154.22;;;1.50;100.00
20455;BME280;10386;54.314;10.022;2022-11-20T04:21:32;100153.22;;;1.53;100.00
20455;BME280;10386;54.314;10.022;2022-11-20T04:23:59;100157.13;;;1.46;100.00
20455;BME280;10386;54.314;10.022;2022-11-20T04:26:28;100154.72;;;1.40;100.00
20455;BME280;10386;54.314;10.022;2022-11-20T04:28:56;100156.66;;;1.36;100.00
20455;BME280;10386;54.314;10.022;2022-11-20T04:31:27;100156.00;;;1.32;100.00
20455;BME280;10386;54.314;10.022;2022-11-20T04:33:55;100151.53;;;1.32;100.00
20455;BME280;10386;54.314;10.022;2022-11-20T04:36:25;100159.47;;;1.33;100.00
20455;BME280;10386;54.314;10.022;2022-11-20T04:39:01;100168.41;;;1.33;100.00
20455;BME280;10386;54.314;10.022;2022-11-20T04:41:31;100166.69;;;1.32;100.00
20455;BME280;10386;54.314;10.022;2022-11-20T04:44:00;100165.88;;;1.30;100.00
20455;BME280;10386;54.314;10.022;2022-11-20T04:46:36;100167.56;;;1.32;100.00
20455;BME280;10386;54.314;10.022;2022-11-20T04:49:03;100161.34;;;1.32;100.00
20455;BME280;10386;54.314;10.022;2022-11-20T04:51:31;100162.13;;;1.33;100.00
20455;BME280;10386;54.314;10.022;2022-11-20T04:53:58;100153.31;;;1.32;100.00
20455;BME280;10386;54.314;10.022;2022-11-20T04:56:52;100154.34;;;1.29;100.00
20455;BME280;10386;54.314;10.022;2022-11-20T04:59:19;100159.72;;;1.28;100.00
20455;BME280;10386;54.314;10.022;2022-11-20T05:01:49;100062.75;;;1.24;100.00
20455;BME280;10386;54.314;10.022;2022-11-20T05:04:16;100056.47;;;1.25;100.00
20455;BME280;10386;54.314;10.022;2022-11-20T05:06:45;100056.72;;;1.21;100.00
20455;BME280;10386;54.314;10.022;2022-11-20T05:09:12;100050.28;;;1.25;100.00
20455;BME280;10386;54.314;10.022;2022-11-20T05:11:39;100026.38;;;1.22;100.00
20455;BME280;10386;54.314;10.022;2022-11-20T05:14:06;100022.91;;;1.20;100.00
20455;BME280;10386;54.314;10.022;2022-11-20T05:16:34;100019.28;;;1.21;100.00
20455;BME280;10386;54.314;10.022;2022-11-20T05:19:02;100023.75;;;1.20;100.00
20455;BME280;10386;54.314;10.022;2022-11-20T05:21:30;100033.59;;;1.20;100.00
20455;BME280;10386;54.314;10.022;2022-11-20T05:23:58;100033.59;;;1.20;100.00
20455;BME280;10386;54.314;10.022;2022-11-20T05:26:25;100060.38;;;1.18;100.00
20455;BME280;10386;54.314;10.022;2022-11-20T05:28:52;100073.81;;;1.17;100.00
20455;BME280;10386;54.314;10.022;2022-11-20T05:31:24;100073.81;;;1.17;100.00
20455;BME280;10386;54.314;10.022;2022-11-20T05:33:55;100088.97;;;1.16;100.00
20455;BME280;10386;54.314;10.022;2022-11-20T05:36:23;100092.53;;;1.17;100.00
20455;BME280;10386;54.314;10.022;2022-11-20T05:38:50;100082.78;;;1.16;100.00
20455;BME280;10386;54.314;10.022;2022-11-20T05:41:22;100081.84;;;1.17;100.00
20455;BME280;10386;54.314;10.022;2022-11-20T05:43:49;100071.19;;;1.15;100.00
20455;BME280;10386;54.314;10.022;2022-11-20T05:46:43;100070.41;;;1.13;100.00
20455;BME280;10386;54.314;10.022;2022-11-20T05:49:10;100067.03;;;1.10;100.00
20455;BME280;10386;54.314;10.022;2022-11-20T05:51:37;100065.84;;;1.15;100.00
20455;BME280;10386;54.314;10.022;2022-11-20T05:54:06;100065.72;;;1.18;100.00
20455;BME280;10386;54.314;10.022;2022-11-20T05:56:33;100063.28;;;1.14;100.00
20455;BME280;10386;54.314;10.022;2022-11-20T05:59:01;100061.59;;;1.11;100.00
20455;BME280;10386;54.314;10.022;2022-11-20T06:01:28;100060.59;;;1.14;100.00
20455;BME280;10386;54.314;10.022;2022-11-20T06:03:55;100052.50;;;1.15;100.00
20455;BME280;10386;54.314;10.022;2022-11-20T06:06:22;100055.41;;;1.11;100.00
20455;BME280;10386;54.314;10.022;2022-11-20T06:08:49;100055.41;;;1.11;100.00
20455;BME280;10386;54.314;10.022;2022-11-20T06:11:18;100063.28;;;1.14;100.00
20455;BME280;10386;54.314;10.022;2022-11-20T06:13:46;100054.38;;;1.13;100.00
20455;BME280;10386;54.314;10.022;2022-11-20T06:16:16;100049.25;;;1.09;100.00
20455;BME280;10386;54.314;10.022;2022-11-20T06:18:44;100047.56;;;1.06;100.00
20455;BME280;10386;54.314;10.022;2022-11-20T06:21:19;100051.97;;;1.07;100.00
20455;BME280;10386;54.314;10.022;2022-11-20T06:23:48;100048.59;;;1.04;100.00
20455;BME280;10386;54.314;10.022;2022-11-20T06:26:21;100048.72;;;1.01;100.00
20455;BME280;10386;54.314;10.022;2022-11-20T06:28:49;100042.44;;;1.02;100.00
20455;BME280;10386;54.314;10.022;2022-11-20T06:31:19;100043.38;;;1.01;100.00
20455;BME280;10386;54.314;10.022;2022-11-20T06:33:48;100044.09;;;1.04;100.00
20455;BME280;10386;54.314;10.022;2022-11-20T06:36:17;100043.03;;;1.08;100.00
20455;BME280;10386;54.314;10.022;2022-11-20T06:38:45;100045.78;;;1.07;100.00
20455;BME280;10386;54.314;10.022;2022-11-20T06:41:14;100034.16;;;1.08;100.00
20455;BME280;10386;54.314;10.022;2022-11-20T06:43:42;100021.59;;;1.10;100.00
20455;BME280;10386;54.314;10.022;2022-11-20T06:46:11;100028.81;;;1.08;100.00
20455;BME280;10386;54.314;10.022;2022-11-20T06:48:39;100030.53;;;1.09;100.00
20455;BME280;10386;54.314;10.022;2022-11-20T06:51:07;100022.59;;;1.07;100.00
20455;BME280;10386;54.314;10.022;2022-11-20T06:53:34;100023.59;;;1.05;100.00
20455;BME280;10386;54.314;10.022;2022-11-20T06:56:02;100020.84;;;1.06;100.00
20455;BME280;10386;54.314;10.022;2022-11-20T06:58:31;100016.66;;;1.01;100.00
20455;BME280;10386;54.314;10.022;2022-11-20T07:01:03;100018.47;;;1.00;100.00
20455;BME280;10386;54.314;10.022;2022-11-20T07:03:31;100023.81;;;1.00;100.00
20455;BME280;10386;54.314;10.022;2022-11-20T07:05:58;100022.16;;;0.98;100.00
20455;BME280;10386;54.314;10.022;2022-11-20T07:08:26;100030.69;;;1.06;100.00
20455;BME280;10386;54.314;10.022;2022-11-20T07:10:59;100027.13;;;1.05;100.00
20455;BME280;10386;54.314;10.022;2022-11-20T07:13:27;100026.03;;;1.29;100.00
20455;BME280;10386;54.314;10.022;2022-11-20T07:15:55;100030.06;;;1.37;100.00
20455;BME280;10386;54.314;10.022;2022-11-20T07:18:25;100024.81;;;1.36;100.00
20455;BME280;10386;54.314;10.022;2022-11-20T07:20:52;100029.34;;;1.34;100.00
20455;BME280;10386;54.314;10.022;2022-11-20T07:23:19;100027.25;;;1.40;100.00
20455;BME280;10386;54.314;10.022;2022-11-20T07:25:46;100024.28;;;1.65;100.00
20455;BME280;10386;54.314;10.022;2022-11-20T07:28:13;100008.56;;;1.57;100.00
20455;BME280;10386;54.314;10.022;2022-11-20T07:30:40;100002.97;;;1.45;100.00
20455;BME280;10386;54.314;10.022;2022-11-20T07:33:08;100003.31;;;1.37;100.00
20455;BME280;10386;54.314;10.022;2022-11-20T07:35:35;100006.13;;;1.34;100.00
20455;BME280;10386;54.314;10.022;2022-11-20T07:38:02;100011.72;;;1.30;100.00
20455;BME280;10386;54.314;10.022;2022-11-20T07:40:29;100009.91;;;1.31;100.00
20455;BME280;10386;54.314;10.022;2022-11-20T07:42:56;100009.75;;;1.33;100.00
20455;BME280;10386;54.314;10.022;2022-11-20T07:45:23;100020.59;;;1.31;100.00
20455;BME280;10386;54.314;10.022;2022-11-20T07:47:54;100009.47;;;1.39;100.00
20455;BME280;10386;54.314;10.022;2022-11-20T07:50:22;100017.84;;;1.32;100.00
20455;BME280;10386;54.314;10.022;2022-11-20T07:53:14;100013.66;;;1.27;100.00
20455;BME280;10386;54.314;10.022;2022-11-20T07:55:47;100010.94;;;1.28;100.00
20455;BME280;10386;54.314;10.022;2022-11-20T07:58:14;100022.19;;;1.34;100.00
20455;BME280;10386;54.314;10.022;2022-11-20T08:00:41;100012.22;;;1.38;100.00
20455;BME280;10386;54.314;10.022;2022-11-20T08:03:08;100015.91;;;1.35;100.00
20455;BME280;10386;54.314;10.022;2022-11-20T08:05:35;100009.97;;;1.47;100.00
20455;BME280;10386;54.314;10.022;2022-11-20T08:08:29;100019.06;;;1.43;100.00
20455;BME280;10386;54.314;10.022;2022-11-20T08:10:59;100025.84;;;1.50;100.00
20455;BME280;10386;54.314;10.022;2022-11-20T08:13:45;100028.25;;;1.56;100.00
20455;BME280;10386;54.314;10.022;2022-11-20T08:16:30;100023.03;;;1.53;100.00
20455;BME280;10386;54.314;10.022;2022-11-20T08:19:00;100021.50;;;1.66;100.00
20455;BME280;10386;54.314;10.022;2022-11-20T08:21:31;100008.53;;;1.94;100.00
20455;BME280;10386;54.314;10.022;2022-11-20T08:24:04;100005.47;;;2.02;100.00
20455;BME280;10386;54.314;10.022;2022-11-20T08:26:32;100001.94;;;2.18;100.00
20455;BME280;10386;54.314;10.022;2022-11-20T08:28:59;99996.84;;;2.48;100.00
20455;BME280;10386;54.314;10.022;2022-11-20T08:31:27;99999.13;;;2.38;100.00
20455;BME280;10386;54.314;10.022;2022-11-20T08:33:54;99998.72;;;2.46;100.00
20455;BME280;10386;54.314;10.022;2022-11-20T08:36:23;99991.47;;;2.65;100.00
20455;BME280;10386;54.314;10.022;2022-11-20T08:38:52;99984.81;;;2.88;100.00
20455;BME280;10386;54.314;10.022;2022-11-20T08:41:20;99985.59;;;2.90;100.00
20455;BME280;10386;54.314;10.022;2022-11-20T08:43:52;99989.97;;;2.76;100.00
20455;BME280;10386;54.314;10.022;2022-11-20T08:46:19;99997.97;;;2.93;100.00
20455;BME280;10386;54.314;10.022;2022-11-20T08:49:12;100003.91;;;2.66;100.00
20455;BME280;10386;54.314;10.022;2022-11-20T08:51:40;99997.94;;;2.27;100.00
20455;BME280;10386;54.314;10.022;2022-11-20T08:54:08;100006.94;;;2.26;100.00
20455;BME280;10386;54.314;10.022;2022-11-20T08:57:00;100007.50;;;1.97;100.00
20455;BME280;10386;54.314;10.022;2022-11-20T08:59:27;100007.72;;;1.75;100.00
20455;BME280;10386;54.314;10.022;2022-11-20T09:02:14;100008.44;;;1.96;100.00
20455;BME280;10386;54.314;10.022;2022-11-20T09:04:41;99995.31;;;1.91;100.00
20455;BME280;10386;54.314;10.022;2022-11-20T09:07:08;100005.69;;;1.80;100.00
20455;BME280;10386;54.314;10.022;2022-11-20T09:09:35;99995.44;;;1.71;100.00
20455;BME280;10386;54.314;10.022;2022-11-20T09:12:02;100014.50;;;1.64;100.00
20455;BME280;10386;54.314;10.022;2022-11-20T09:14:29;100008.53;;;1.59;100.00
20455;BME280;10386;54.314;10.022;2022-11-20T09:17:22;100011.03;;;1.62;100.00
20455;BME280;10386;54.314;10.022;2022-11-20T09:19:49;100017.25;;;1.62;100.00
20455;BME280;10386;54.314;10.022;2022-11-20T09:22:16;100021.16;;;1.55;100.00
20455;BME280;10386;54.314;10.022;2022-11-20T09:24:43;100019.44;;;1.54;100.00
20455;BME280;10386;54.314;10.022;2022-11-20T09:27:10;100017.53;;;1.56;100.00
20455;BME280;10386;54.314;10.022;2022-11-20T09:29:37;100016.44;;;1.60;100.00
20455;BME280;10386;54.314;10.022;2022-11-20T09:32:04;100017.88;;;1.67;100.00
20455;BME280;10386;54.314;10.022;2022-11-20T09:34:31;100008.06;;;1.86;100.00
20455;BME280;10386;54.314;10.022;2022-11-20T09:36:58;100013.13;;;2.09;100.00
20455;BME280;10386;54.314;10.022;2022-11-20T09:39:32;100012.09;;;2.12;100.00
20455;BME280;10386;54.314;10.022;2022-11-20T09:47:41;100003.84;;;2.33;100.00
20455;BME280;10386;54.314;10.022;2022-11-20T09:50:17;100002.31;;;2.11;100.00
20455;BME280;10386;54.314;10.022;2022-11-20T09:55:45;100015.16;;;2.04;100.00
20455;BME280;10386;54.314;10.022;2022-11-20T09:58:42;100018.06;;;2.00;100.00
20455;BME280;10386;54.314;10.022;2022-11-20T10:01:19;100014.28;;;2.04;100.00
20455;BME280;10386;54.314;10.022;2022-11-20T10:04:15;100018.84;;;2.02;100.00
20455;BME280;10386;54.314;10.022;2022-11-20T10:06:44;100009.41;;;2.12;100.00
20455;BME280;10386;54.314;10.022;2022-11-20T10:09:52;100011.25;;;2.28;100.00
20455;BME280;10386;54.314;10.022;2022-11-20T10:12:46;99998.81;;;2.44;100.00
20455;BME280;10386;54.314;10.022;2022-11-20T10:15:55;99991.66;;;2.45;100.00
20455;BME280;10386;54.314;10.022;2022-11-20T10:29:17;99993.91;;;2.35;100.00
20455;BME280;10386;54.314;10.022;2022-11-20T10:32:00;99995.50;;;2.39;100.00
20455;BME280;10386;54.314;10.022;2022-11-20T10:34:39;99995.34;;;2.42;100.00
20455;BME280;10386;54.314;10.022;2022-11-20T10:37:16;99997.84;;;2.45;100.00
20455;BME280;10386;54.314;10.022;2022-11-20T10:40:23;99992.03;;;2.71;100.00
20455;BME280;10386;54.314;10.022;2022-11-20T10:45:42;99984.34;;;3.13;100.00
20455;BME280;10386;54.314;10.022;2022-11-20T10:48:24;99987.03;;;3.13;100.00
20455;BME280;10386;54.314;10.022;2022-11-20T10:56:41;100014.22;;;2.90;100.00
20455;BME280;10386;54.314;10.022;2022-11-20T11:02:29;100039.16;;;2.58;100.00
20455;BME280;10386;54.314;10.022;2022-11-20T11:04:58;100036.63;;;2.55;100.00
20455;BME280;10386;54.314;10.022;2022-11-20T11:07:39;100046.16;;;2.61;100.00
20455;BME280;10386;54.314;10.022;2022-11-20T11:10:16;100047.03;;;2.61;100.00
20455;BME280;10386;54.314;10.022;2022-11-20T11:13:29;100053.66;;;2.71;100.00
20455;BME280;10386;54.314;10.022;2022-11-20T11:16:00;100061.59;;;2.72;100.00
20455;BME280;10386;54.314;10.022;2022-11-20T11:18:33;100052.25;;;2.96;100.00
20455;BME280;10386;54.314;10.022;2022-11-20T11:21:03;100059.63;;;2.93;100.00
20455;BME280;10386;54.314;10.022;2022-11-20T11:23:39;100061.41;;;2.92;100.00
20455;BME280;10386;54.314;10.022;2022-11-20T11:26:20;100066.38;;;3.00;100.00
20455;BME280;10386;54.314;10.022;2022-11-20T11:28:55;100057.13;;;3.38;100.00
20455;BME280;10386;54.314;10.022;2022-11-20T11:31:32;100056.94;;;3.58;100.00
20455;BME280;10386;54.314;10.022;2022-11-20T11:34:18;100068.09;;;3.81;100.00
20455;BME280;10386;54.314;10.022;2022-11-20T11:36:57;100077.34;;;3.60;100.00
20455;BME280;10386;54.314;10.022;2022-11-20T11:39:26;100067.94;;;4.00;100.00
20455;BME280;10386;54.314;10.022;2022-11-20T11:41:57;100092.44;;;3.78;100.00
20455;BME280;10386;54.314;10.022;2022-11-20T11:44:29;100105.41;;;3.70;100.00
20455;BME280;10386;54.314;10.022;2022-11-20T11:47:22;100142.44;;;3.31;100.00
20455;BME280;10386;54.314;10.022;2022-11-20T11:50:12;100232.84;;;3.29;100.00
20455;BME280;10386;54.314;10.022;2022-11-20T12:00:50;100260.53;;;3.13;100.00
20455;BME280;10386;54.314;10.022;2022-11-20T12:03:44;100261.63;;;3.26;100.00
20455;BME280;10386;54.314;10.022;2022-11-20T12:06:17;100268.03;;;3.23;100.00
20455;BME280;10386;54.314;10.022;2022-11-20T12:12:18;100255.72;;;3.19;100.00
20455;BME280;10386;54.314;10.022;2022-11-20T12:14:47;100264.25;;;3.10;100.00
20455;BME280;10386;54.314;10.022;2022-11-20T12:17:16;100262.03;;;3.18;100.00
20455;BME280;10386;54.314;10.022;2022-11-20T12:19:44;100274.06;;;3.10;100.00
20455;BME280;10386;54.314;10.022;2022-11-20T12:25:18;100305.56;;;3.06;100.00
20455;BME280;10386;54.314;10.022;2022-11-20T12:28:13;100310.31;;;3.18;100.00
20455;BME280;10386;54.314;10.022;2022-11-20T12:31:02;100321.88;;;3.19;100.00
20455;BME280;10386;54.314;10.022;2022-11-20T12:45:05;100355.84;;;4.21;100.00
20455;BME280;10386;54.314;10.022;2022-11-20T12:54:10;100414.56;;;4.12;100.00
20455;BME280;10386;54.314;10.022;2022-11-20T12:59:55;100464.97;;;3.90;100.00
20455;BME280;10386;54.314;10.022;2022-11-20T13:05:46;100497.16;;;3.55;100.00
20455;BME280;10386;54.314;10.022;2022-11-20T13:08:47;100511.97;;;3.45;100.00
20455;BME280;10386;54.314;10.022;2022-11-20T13:11:55;100523.63;;;3.44;100.00
20455;BME280;10386;54.314;10.022;2022-11-20T13:17:25;100544.72;;;3.51;100.00
20455;BME280;10386;54.314;10.022;2022-11-20T13:19:57;100551.84;;;3.71;100.00
20455;BME280;10386;54.314;10.022;2022-11-20T13:22:41;100570.25;;;3.60;100.00
20455;BME280;10386;54.314;10.022;2022-11-20T13:25:28;100588.25;;;3.58;100.00
20455;BME280;10386;54.314;10.022;2022-11-20T13:27:59;100596.41;;;3.36;100.00
20455;BME280;10386;54.314;10.022;2022-11-20T13:30:33;100605.72;;;3.28;100.00
20455;BME280;10386;54.314;10.022;2022-11-20T13:33:08;100616.59;;;3.45;100.00
20455;BME280;10386;54.314;10.022;2022-11-20T13:35:40;100622.91;;;3.44;100.00
20455;BME280;10386;54.314;10.022;2022-11-20T13:38:14;100634.81;;;3.37;100.00
20455;BME280;10386;54.314;10.022;2022-11-20T13:46:01;100663.19;;;3.42;100.00
20455;BME280;10386;54.314;10.022;2022-11-20T13:48:32;100669.78;;;3.35;100.00
20455;BME280;10386;54.314;10.022;2022-11-20T13:53:36;100686.88;;;3.33;100.00
20455;BME280;10386;54.314;10.022;2022-11-20T13:56:22;100693.44;;;3.26;100.00
20455;BME280;10386;54.314;10.022;2022-11-20T14:01:31;100703.38;;;3.24;100.00
20455;BME280;10386;54.314;10.022;2022-11-20T14:03:59;100709.75;;;3.41;100.00
20455;BME280;10386;54.314;10.022;2022-11-20T14:06:39;100710.56;;;3.43;100.00
20455;BME280;10386;54.314;10.022;2022-11-20T14:09:28;100711.28;;;3.27;100.00
20455;BME280;10386;54.314;10.022;2022-11-20T14:11:55;100723.69;;;3.09;100.00
20455;BME280;10386;54.314;10.022;2022-11-20T14:14:28;100726.06;;;2.95;100.00
20455;BME280;10386;54.314;10.022;2022-11-20T14:17:20;100734.59;;;3.05;100.00
20455;BME280;10386;54.314;10.022;2022-11-20T14:19:51;100734.06;;;3.17;100.00
20455;BME280;10386;54.314;10.022;2022-11-20T14:22:25;100742.53;;;2.86;100.00
20455;BME280;10386;54.314;10.022;2022-11-20T14:25:06;100743.28;;;2.68;100.00
20455;BME280;10386;54.314;10.022;2022-11-20T14:27:36;100752.47;;;2.63;100.00
20455;BME280;10386;54.314;10.022;2022-11-20T14:30:04;100753.13;;;2.89;100.00
20455;BME280;10386;54.314;10.022;2022-11-20T14:32:34;100746.28;;;2.82;100.00
20455;BME280;10386;54.314;10.022;2022-11-20T14:35:13;100748.38;;;2.53;100.00
20455;BME280;10386;54.314;10.022;2022-11-20T14:37:41;100747.25;;;2.37;100.00